sensor_id;sensor_type;location;lat;lon;timestamp;P1;durP1;ratioP1;P2;durP2;ratioP2
7013;SDS011;3547;50.774;12.918;2023-05-07T00:01:53;10.37;;;5.80;;
7013;SDS011;3547;50.774;12.918;2023-05-07T00:04:25;8.30;;;5.83;;
7013;SDS011;3547;50.774;12.918;2023-05-07T00:06:53;9.10;;;5.83;;
7013;SDS011;3547;50.774;12.918;2023-05-07T00:09:31;9.73;;;6.03;;
7013;SDS011;3547;50.774;12.918;2023-05-07T00:12:00;9.07;;;6.93;;
7013;SDS011;3547;50.774;12.918;2023-05-07T00:14:28;9.63;;;5.80;;
7013;SDS011;3547;50.774;12.918;2023-05-07T00:19:45;10.47;;;5.80;;
7013;SDS011;3547;50.774;12.918;2023-05-07T00:22:14;10.63;;;5.43;;
7013;SDS011;3547;50.774;12.918;2023-05-07T00:24:43;8.80;;;5.87;;
7013;SDS011;3547;50.774;12.918;2023-05-07T00:27:12;8.63;;;5.33;;
7013;SDS011;3547;50.774;12.918;2023-05-07T00:29:39;8.97;;;4.80;;
7013;SDS011;3547;50.774;12.918;2023-05-07T00:32:05;7.87;;;4.90;;
7013;SDS011;3547;50.774;12.918;2023-05-07T00:34:31;6.93;;;5.23;;
7013;SDS011;3547;50.774;12.918;2023-05-07T00:37:05;8.00;;;5.53;;
7013;SDS011;3547;50.774;12.918;2023-05-07T00:39:35;9.53;;;5.07;;
7013;SDS011;3547;50.774;12.918;2023-05-07T00:42:09;14.17;;;4.77;;
7013;SDS011;3547;50.774;12.918;2023-05-07T00:44:38;7.80;;;4.90;;
7013;SDS011;3547;50.774;12.918;2023-05-07T00:47:09;8.33;;;4.80;;
7013;SDS011;3547;50.774;12.918;2023-05-07T00:49:42;7.57;;;4.77;;
7013;SDS011;3547;50.774;12.918;2023-05-07T00:52:11;8.07;;;5.20;;
7013;SDS011;3547;50.774;12.918;2023-05-07T00:54:42;5.90;;;4.73;;
7013;SDS011;3547;50.774;12.918;2023-05-07T00:57:09;7.30;;;4.90;;
7013;SDS011;3547;50.774;12.918;2023-05-07T00:59:38;7.00;;;4.87;;
7013;SDS011;3547;50.774;12.918;2023-05-07T01:02:06;7.90;;;4.47;;
7013;SDS011;3547;50.774;12.918;2023-05-07T01:04:35;7.63;;;4.50;;
7013;SDS011;3547;50.774;12.918;2023-05-07T01:07:04;6.93;;;4.07;;
7013;SDS011;3547;50.774;12.918;2023-05-07T01:09:32;10.10;;;4.67;;
7013;SDS011;3547;50.774;12.918;2023-05-07T01:12:00;5.73;;;4.40;;
7013;SDS011;3547;50.774;12.918;2023-05-07T01:14:30;7.33;;;5.07;;
7013;SDS011;3547;50.774;12.918;2023-05-07T01:17:01;6.60;;;4.27;;
7013;SDS011;3547;50.774;12.918;2023-05-07T01:19:41;7.40;;;4.73;;
7013;SDS011;3547;50.774;12.918;2023-05-07T01:22:11;5.97;;;3.77;;
7013;SDS011;3547;50.774;12.918;2023-05-07T01:24:43;5.53;;;3.80;;
7013;SDS011;3547;50.774;12.918;2023-05-07T01:27:22;5.90;;;3.53;;
7013;SDS011;3547;50.774;12.918;2023-05-07T01:29:57;8.37;;;4.40;;
7013;SDS011;3547;50.774;12.918;2023-05-07T01:32:28;4.93;;;3.57;;
7013;SDS011;3547;50.774;12.918;2023-05-07T01:38:25;5.90;;;3.87;;
7013;SDS011;3547;50.774;12.918;2023-05-07T01:40:59;6.90;;;4.03;;
7013;SDS011;3547;50.774;12.918;2023-05-07T01:43:26;6.33;;;3.93;;
7013;SDS011;3547;50.774;12.918;2023-05-07T01:46:03;5.07;;;3.57;;
7013;SDS011;3547;50.774;12.918;2023-05-07T01:48:33;4.73;;;3.07;;
7013;SDS011;3547;50.774;12.918;2023-05-07T01:51:00;9.43;;;4.47;;
7013;SDS011;3547;50.774;12.918;2023-05-07T01:54:10;7.07;;;4.30;;
7013;SDS011;3547;50.774;12.918;2023-05-07T01:56:40;4.17;;;3.50;;
7013;SDS011;3547;50.774;12.918;2023-05-07T01:59:30;5.53;;;3.23;;
7013;SDS011;3547;50.774;12.918;2023-05-07T02:02:05;4.77;;;3.20;;
7013;SDS011;3547;50.774;12.918;2023-05-07T02:04:37;5.47;;;4.03;;
7013;SDS011;3547;50.774;12.918;2023-05-07T02:07:13;8.73;;;3.60;;
7013;SDS011;3547;50.774;12.918;2023-05-07T02:09:41;7.63;;;4.23;;
7013;SDS011;3547;50.774;12.918;2023-05-07T02:12:07;5.50;;;3.40;;
7013;SDS011;3547;50.774;12.918;2023-05-07T02:14:41;4.40;;;3.30;;
7013;SDS011;3547;50.774;12.918;2023-05-07T02:17:16;5.93;;;3.87;;
7013;SDS011;3547;50.774;12.918;2023-05-07T02:19:44;4.67;;;3.40;;
7013;SDS011;3547;50.774;12.918;2023-05-07T02:22:18;5.43;;;3.83;;
7013;SDS011;3547;50.774;12.918;2023-05-07T02:25:49;7.37;;;3.80;;
7013;SDS011;3547;50.774;12.918;2023-05-07T02:28:20;5.60;;;3.53;;
7013;SDS011;3547;50.774;12.918;2023-05-07T02:30:46;6.53;;;4.17;;
7013;SDS011;3547;50.774;12.918;2023-05-07T02:33:13;6.17;;;3.80;;
7013;SDS011;3547;50.774;12.918;2023-05-07T02:35:46;6.87;;;4.07;;
7013;SDS011;3547;50.774;12.918;2023-05-07T02:38:20;5.33;;;3.70;;
7013;SDS011;3547;50.774;12.918;2023-05-07T02:40:52;8.50;;;4.10;;
7013;SDS011;3547;50.774;12.918;2023-05-07T02:43:23;6.40;;;4.03;;
7013;SDS011;3547;50.774;12.918;2023-05-07T02:49:02;5.90;;;4.17;;
7013;SDS011;3547;50.774;12.918;2023-05-07T02:51:59;8.57;;;4.70;;
7013;SDS011;3547;50.774;12.918;2023-05-07T02:54:28;6.00;;;4.57;;
7013;SDS011;3547;50.774;12.918;2023-05-07T02:57:00;7.93;;;4.50;;
7013;SDS011;3547;50.774;12.918;2023-05-07T02:59:27;7.77;;;4.43;;
7013;SDS011;3547;50.774;12.918;2023-05-07T03:05:51;5.90;;;4.73;;
7013;SDS011;3547;50.774;12.918;2023-05-07T03:08:17;7.30;;;4.67;;
7013;SDS011;3547;50.774;12.918;2023-05-07T03:10:47;7.80;;;4.63;;
7013;SDS011;3547;50.774;12.918;2023-05-07T03:13:15;8.80;;;5.03;;
7013;SDS011;3547;50.774;12.918;2023-05-07T03:15:47;8.63;;;4.70;;
7013;SDS011;3547;50.774;12.918;2023-05-07T03:22:14;8.27;;;5.43;;
7013;SDS011;3547;50.774;12.918;2023-05-07T03:24:41;9.50;;;4.93;;
7013;SDS011;3547;50.774;12.918;2023-05-07T03:27:10;7.57;;;4.93;;
7013;SDS011;3547;50.774;12.918;2023-05-07T03:29:36;8.20;;;5.37;;
7013;SDS011;3547;50.774;12.918;2023-05-07T03:32:12;7.60;;;5.63;;
7013;SDS011;3547;50.774;12.918;2023-05-07T03:34:38;9.37;;;5.73;;
7013;SDS011;3547;50.774;12.918;2023-05-07T03:37:20;11.20;;;5.93;;
7013;SDS011;3547;50.774;12.918;2023-05-07T03:39:56;7.67;;;4.77;;
7013;SDS011;3547;50.774;12.918;2023-05-07T03:42:30;8.33;;;5.40;;
7013;SDS011;3547;50.774;12.918;2023-05-07T03:44:56;10.60;;;5.43;;
7013;SDS011;3547;50.774;12.918;2023-05-07T03:47:31;8.17;;;6.00;;
7013;SDS011;3547;50.774;12.918;2023-05-07T03:49:58;11.10;;;6.70;;
7013;SDS011;3547;50.774;12.918;2023-05-07T03:52:32;11.63;;;6.53;;
7013;SDS011;3547;50.774;12.918;2023-05-07T03:55:01;8.40;;;5.30;;
7013;SDS011;3547;50.774;12.918;2023-05-07T03:57:29;9.57;;;6.47;;
7013;SDS011;3547;50.774;12.918;2023-05-07T03:59:55;10.03;;;6.63;;
7013;SDS011;3547;50.774;12.918;2023-05-07T04:02:27;8.53;;;5.93;;
7013;SDS011;3547;50.774;12.918;2023-05-07T04:04:56;7.20;;;5.23;;
7013;SDS011;3547;50.774;12.918;2023-05-07T04:07:42;8.83;;;6.10;;
7013;SDS011;3547;50.774;12.918;2023-05-07T04:10:16;8.50;;;4.93;;
7013;SDS011;3547;50.774;12.918;2023-05-07T04:12:47;9.03;;;5.50;;
7013;SDS011;3547;50.774;12.918;2023-05-07T04:15:19;8.53;;;5.60;;
7013;SDS011;3547;50.774;12.918;2023-05-07T04:18:43;7.60;;;5.00;;
7013;SDS011;3547;50.774;12.918;2023-05-07T04:21:41;7.57;;;5.70;;
7013;SDS011;3547;50.774;12.918;2023-05-07T04:24:08;10.13;;;5.40;;
7013;SDS011;3547;50.774;12.918;2023-05-07T04:26:40;9.43;;;5.40;;
7013;SDS011;3547;50.774;12.918;2023-05-07T04:29:15;11.23;;;6.13;;
7013;SDS011;3547;50.774;12.918;2023-05-07T04:31:50;8.03;;;4.97;;
7013;SDS011;3547;50.774;12.918;2023-05-07T04:34:16;6.40;;;4.77;;
7013;SDS011;3547;50.774;12.918;2023-05-07T04:36:42;9.27;;;6.30;;
7013;SDS011;3547;50.774;12.918;2023-05-07T04:39:08;10.10;;;5.83;;
7013;SDS011;3547;50.774;12.918;2023-05-07T04:41:44;9.80;;;5.50;;
7013;SDS011;3547;50.774;12.918;2023-05-07T04:44:46;7.90;;;5.43;;
7013;SDS011;3547;50.774;12.918;2023-05-07T04:50:35;8.67;;;5.13;;
7013;SDS011;3547;50.774;12.918;2023-05-07T04:53:16;9.47;;;5.23;;
7013;SDS011;3547;50.774;12.918;2023-05-07T04:55:49;10.57;;;5.67;;
7013;SDS011;3547;50.774;12.918;2023-05-07T04:58:22;9.07;;;5.17;;
7013;SDS011;3547;50.774;12.918;2023-05-07T05:00:53;6.83;;;4.73;;
7013;SDS011;3547;50.774;12.918;2023-05-07T05:03:19;8.33;;;4.67;;
7013;SDS011;3547;50.774;12.918;2023-05-07T05:05:45;6.77;;;4.20;;
7013;SDS011;3547;50.774;12.918;2023-05-07T05:08:15;5.40;;;3.67;;
7013;SDS011;3547;50.774;12.918;2023-05-07T05:10:42;6.77;;;4.70;;
7013;SDS011;3547;50.774;12.918;2023-05-07T05:13:16;4.83;;;3.67;;
7013;SDS011;3547;50.774;12.918;2023-05-07T05:15:58;6.57;;;4.33;;
7013;SDS011;3547;50.774;12.918;2023-05-07T05:18:24;6.67;;;4.87;;
7013;SDS011;3547;50.774;12.918;2023-05-07T05:20:51;6.13;;;4.20;;
7013;SDS011;3547;50.774;12.918;2023-05-07T05:23:23;6.27;;;3.77;;
7013;SDS011;3547;50.774;12.918;2023-05-07T05:26:00;6.37;;;4.17;;
7013;SDS011;3547;50.774;12.918;2023-05-07T05:28:30;5.93;;;4.13;;
7013;SDS011;3547;50.774;12.918;2023-05-07T05:30:59;8.47;;;4.13;;
7013;SDS011;3547;50.774;12.918;2023-05-07T05:33:35;4.93;;;4.00;;
7013;SDS011;3547;50.774;12.918;2023-05-07T05:39:36;7.37;;;4.13;;
7013;SDS011;3547;50.774;12.918;2023-05-07T05:53:07;2.90;;;2.53;;
7013;SDS011;3547;50.774;12.918;2023-05-07T05:55:42;6.60;;;3.23;;
7013;SDS011;3547;50.774;12.918;2023-05-07T06:01:32;6.33;;;3.33;;
7013;SDS011;3547;50.774;12.918;2023-05-07T06:04:43;4.40;;;3.00;;
7013;SDS011;3547;50.774;12.918;2023-05-07T06:07:15;3.50;;;2.70;;
7013;SDS011;3547;50.774;12.918;2023-05-07T06:09:47;3.57;;;2.87;;
7013;SDS011;3547;50.774;12.918;2023-05-07T06:12:18;4.77;;;2.90;;
7013;SDS011;3547;50.774;12.918;2023-05-07T06:14:47;5.40;;;3.47;;
7013;SDS011;3547;50.774;12.918;2023-05-07T06:17:18;4.87;;;4.03;;
7013;SDS011;3547;50.774;12.918;2023-05-07T06:19:45;5.13;;;3.93;;
7013;SDS011;3547;50.774;12.918;2023-05-07T06:22:11;7.63;;;4.03;;
7013;SDS011;3547;50.774;12.918;2023-05-07T06:24:37;5.03;;;3.53;;
7013;SDS011;3547;50.774;12.918;2023-05-07T06:27:07;6.03;;;3.70;;
7013;SDS011;3547;50.774;12.918;2023-05-07T06:29:33;4.17;;;3.13;;
7013;SDS011;3547;50.774;12.918;2023-05-07T06:32:09;6.23;;;3.60;;
7013;SDS011;3547;50.774;12.918;2023-05-07T06:34:40;4.83;;;3.03;;
7013;SDS011;3547;50.774;12.918;2023-05-07T06:37:09;9.17;;;4.23;;
7013;SDS011;3547;50.774;12.918;2023-05-07T06:39:37;5.90;;;3.97;;
7013;SDS011;3547;50.774;12.918;2023-05-07T06:42:03;4.87;;;3.00;;
7013;SDS011;3547;50.774;12.918;2023-05-07T06:44:30;7.53;;;3.87;;
7013;SDS011;3547;50.774;12.918;2023-05-07T06:47:01;5.33;;;3.80;;
7013;SDS011;3547;50.774;12.918;2023-05-07T06:49:27;4.80;;;3.50;;
7013;SDS011;3547;50.774;12.918;2023-05-07T06:51:53;5.00;;;3.73;;
7013;SDS011;3547;50.774;12.918;2023-05-07T06:54:20;5.87;;;3.37;;
7013;SDS011;3547;50.774;12.918;2023-05-07T06:56:52;5.30;;;3.30;;
7013;SDS011;3547;50.774;12.918;2023-05-07T06:59:18;5.40;;;3.37;;
7013;SDS011;3547;50.774;12.918;2023-05-07T07:01:47;5.23;;;3.67;;
7013;SDS011;3547;50.774;12.918;2023-05-07T07:04:17;4.60;;;3.43;;
7013;SDS011;3547;50.774;12.918;2023-05-07T07:07:03;5.00;;;3.00;;
7013;SDS011;3547;50.774;12.918;2023-05-07T07:09:30;6.40;;;3.60;;
7013;SDS011;3547;50.774;12.918;2023-05-07T07:12:01;5.17;;;4.00;;
7013;SDS011;3547;50.774;12.918;2023-05-07T07:14:27;8.40;;;4.10;;
7013;SDS011;3547;50.774;12.918;2023-05-07T07:16:53;5.43;;;3.70;;
7013;SDS011;3547;50.774;12.918;2023-05-07T07:19:22;6.33;;;3.90;;
7013;SDS011;3547;50.774;12.918;2023-05-07T07:21:52;5.00;;;3.37;;
7013;SDS011;3547;50.774;12.918;2023-05-07T07:24:22;5.73;;;3.70;;
7013;SDS011;3547;50.774;12.918;2023-05-07T07:26:51;5.00;;;3.57;;
7013;SDS011;3547;50.774;12.918;2023-05-07T07:29:17;7.17;;;3.53;;
7013;SDS011;3547;50.774;12.918;2023-05-07T07:31:48;4.80;;;2.83;;
7013;SDS011;3547;50.774;12.918;2023-05-07T07:34:19;4.23;;;2.93;;
7013;SDS011;3547;50.774;12.918;2023-05-07T07:36:49;5.77;;;3.83;;
7013;SDS011;3547;50.774;12.918;2023-05-07T07:39:15;5.67;;;3.47;;
7013;SDS011;3547;50.774;12.918;2023-05-07T07:41:42;3.90;;;2.83;;
7013;SDS011;3547;50.774;12.918;2023-05-07T07:48:08;5.73;;;2.93;;
7013;SDS011;3547;50.774;12.918;2023-05-07T07:50:38;6.70;;;3.37;;
7013;SDS011;3547;50.774;12.918;2023-05-07T07:53:07;4.30;;;3.53;;
7013;SDS011;3547;50.774;12.918;2023-05-07T07:55:39;5.80;;;4.17;;
7013;SDS011;3547;50.774;12.918;2023-05-07T08:01:33;4.43;;;2.83;;
7013;SDS011;3547;50.774;12.918;2023-05-07T08:07:54;4.33;;;3.10;;
7013;SDS011;3547;50.774;12.918;2023-05-07T08:10:26;3.43;;;2.80;;
7013;SDS011;3547;50.774;12.918;2023-05-07T08:12:59;5.20;;;2.90;;
7013;SDS011;3547;50.774;12.918;2023-05-07T08:15:30;4.67;;;3.33;;
7013;SDS011;3547;50.774;12.918;2023-05-07T08:21:19;4.63;;;3.40;;
7013;SDS011;3547;50.774;12.918;2023-05-07T08:23:58;4.07;;;2.70;;
7013;SDS011;3547;50.774;12.918;2023-05-07T08:27:25;4.47;;;3.03;;
7013;SDS011;3547;50.774;12.918;2023-05-07T08:29:55;7.00;;;3.50;;
7013;SDS011;3547;50.774;12.918;2023-05-07T08:32:28;3.40;;;2.77;;
7013;SDS011;3547;50.774;12.918;2023-05-07T08:35:00;3.53;;;3.00;;
7013;SDS011;3547;50.774;12.918;2023-05-07T08:37:29;5.13;;;2.90;;
7013;SDS011;3547;50.774;12.918;2023-05-07T08:40:01;3.22;;;2.60;;
7013;SDS011;3547;50.774;12.918;2023-05-07T08:42:41;2.63;;;2.35;;
7013;SDS011;3547;50.774;12.918;2023-05-07T08:45:09;4.15;;;2.75;;
7013;SDS011;3547;50.774;12.918;2023-05-07T08:47:44;3.35;;;2.53;;
7013;SDS011;3547;50.774;12.918;2023-05-07T08:50:15;2.70;;;2.10;;
7013;SDS011;3547;50.774;12.918;2023-05-07T08:52:52;4.30;;;2.72;;
7013;SDS011;3547;50.774;12.918;2023-05-07T08:55:26;3.40;;;2.55;;
7013;SDS011;3547;50.774;12.918;2023-05-07T08:58:04;2.42;;;2.05;;
7013;SDS011;3547;50.774;12.918;2023-05-07T09:00:49;4.20;;;2.78;;
7013;SDS011;3547;50.774;12.918;2023-05-07T09:03:25;3.05;;;2.25;;
7013;SDS011;3547;50.774;12.918;2023-05-07T09:05:54;3.33;;;2.50;;
7013;SDS011;3547;50.774;12.918;2023-05-07T09:08:24;3.08;;;2.22;;
7013;SDS011;3547;50.774;12.918;2023-05-07T09:10:58;2.67;;;2.10;;
7013;SDS011;3547;50.774;12.918;2023-05-07T09:13:24;2.78;;;2.33;;
7013;SDS011;3547;50.774;12.918;2023-05-07T09:15:57;2.85;;;2.08;;
7013;SDS011;3547;50.774;12.918;2023-05-07T09:18:26;2.33;;;2.10;;
7013;SDS011;3547;50.774;12.918;2023-05-07T09:20:55;2.58;;;1.90;;
7013;SDS011;3547;50.774;12.918;2023-05-07T09:23:24;2.75;;;2.00;;
7013;SDS011;3547;50.774;12.918;2023-05-07T09:25:54;3.22;;;1.98;;
7013;SDS011;3547;50.774;12.918;2023-05-07T09:28:28;2.78;;;1.90;;
7013;SDS011;3547;50.774;12.918;2023-05-07T09:31:06;2.67;;;1.92;;
7013;SDS011;3547;50.774;12.918;2023-05-07T09:33:33;2.15;;;1.90;;
7013;SDS011;3547;50.774;12.918;2023-05-07T09:36:04;1.80;;;1.55;;
7013;SDS011;3547;50.774;12.918;2023-05-07T09:38:34;1.85;;;1.60;;
7013;SDS011;3547;50.774;12.918;2023-05-07T09:41:02;2.25;;;1.95;;
7013;SDS011;3547;50.774;12.918;2023-05-07T09:43:47;2.95;;;2.17;;
7013;SDS011;3547;50.774;12.918;2023-05-07T09:46:22;2.30;;;1.92;;
7013;SDS011;3547;50.774;12.918;2023-05-07T09:48:58;2.60;;;2.40;;
7013;SDS011;3547;50.774;12.918;2023-05-07T09:51:40;4.50;;;2.95;;
7013;SDS011;3547;50.774;12.918;2023-05-07T09:54:18;3.25;;;2.22;;
7013;SDS011;3547;50.774;12.918;2023-05-07T09:56:50;3.30;;;2.53;;
7013;SDS011;3547;50.774;12.918;2023-05-07T09:59:34;3.25;;;2.47;;
7013;SDS011;3547;50.774;12.918;2023-05-07T10:02:04;3.10;;;2.40;;
7013;SDS011;3547;50.774;12.918;2023-05-07T10:04:42;3.47;;;2.25;;
7013;SDS011;3547;50.774;12.918;2023-05-07T10:07:15;3.88;;;2.30;;
7013;SDS011;3547;50.774;12.918;2023-05-07T10:09:42;2.97;;;2.42;;
7013;SDS011;3547;50.774;12.918;2023-05-07T10:12:11;4.63;;;2.90;;
7013;SDS011;3547;50.774;12.918;2023-05-07T10:14:42;2.85;;;2.13;;
7013;SDS011;3547;50.774;12.918;2023-05-07T10:17:18;3.08;;;2.55;;
7013;SDS011;3547;50.774;12.918;2023-05-07T10:19:45;3.90;;;2.00;;
7013;SDS011;3547;50.774;12.918;2023-05-07T10:22:21;2.42;;;2.10;;
7013;SDS011;3547;50.774;12.918;2023-05-07T10:24:49;2.58;;;2.17;;
7013;SDS011;3547;50.774;12.918;2023-05-07T10:27:20;3.30;;;2.22;;
7013;SDS011;3547;50.774;12.918;2023-05-07T10:32:42;3.03;;;2.50;;
7013;SDS011;3547;50.774;12.918;2023-05-07T10:35:20;2.13;;;1.60;;
7013;SDS011;3547;50.774;12.918;2023-05-07T10:37:55;2.60;;;1.92;;
7013;SDS011;3547;50.774;12.918;2023-05-07T10:40:24;3.53;;;2.65;;
7013;SDS011;3547;50.774;12.918;2023-05-07T10:43:02;2.20;;;1.80;;
7013;SDS011;3547;50.774;12.918;2023-05-07T10:45:35;3.03;;;2.45;;
7013;SDS011;3547;50.774;12.918;2023-05-07T10:48:09;2.20;;;2.00;;
7013;SDS011;3547;50.774;12.918;2023-05-07T10:50:36;2.50;;;2.10;;
7013;SDS011;3547;50.774;12.918;2023-05-07T10:55:51;2.92;;;1.77;;
7013;SDS011;3547;50.774;12.918;2023-05-07T10:58:42;2.55;;;1.65;;
7013;SDS011;3547;50.774;12.918;2023-05-07T11:02:00;3.20;;;2.60;;
7013;SDS011;3547;50.774;12.918;2023-05-07T11:04:35;2.20;;;1.90;;
7013;SDS011;3547;50.774;12.918;2023-05-07T11:10:11;1.85;;;1.75;;
7013;SDS011;3547;50.774;12.918;2023-05-07T11:15:07;2.05;;;1.75;;
7013;SDS011;3547;50.774;12.918;2023-05-07T11:17:34;1.90;;;1.63;;
7013;SDS011;3547;50.774;12.918;2023-05-07T11:26:07;2.72;;;2.15;;
7013;SDS011;3547;50.774;12.918;2023-05-07T11:28:36;2.15;;;1.95;;
7013;SDS011;3547;50.774;12.918;2023-05-07T11:34:25;2.28;;;1.90;;
7013;SDS011;3547;50.774;12.918;2023-05-07T11:41:10;1.80;;;1.70;;
7013;SDS011;3547;50.774;12.918;2023-05-07T11:43:53;3.15;;;1.92;;
7013;SDS011;3547;50.774;12.918;2023-05-07T11:46:27;3.00;;;2.17;;
7013;SDS011;3547;50.774;12.918;2023-05-07T11:48:56;2.25;;;2.05;;
7013;SDS011;3547;50.774;12.918;2023-05-07T11:51:24;2.67;;;2.30;;
7013;SDS011;3547;50.774;12.918;2023-05-07T11:53:52;2.17;;;2.03;;
7013;SDS011;3547;50.774;12.918;2023-05-07T11:56:22;2.40;;;2.20;;
7013;SDS011;3547;50.774;12.918;2023-05-07T11:59:16;2.47;;;2.08;;
7013;SDS011;3547;50.774;12.918;2023-05-07T12:01:45;2.00;;;1.67;;
7013;SDS011;3547;50.774;12.918;2023-05-07T12:04:12;3.13;;;2.20;;
7013;SDS011;3547;50.774;12.918;2023-05-07T12:06:45;2.55;;;2.08;;
7013;SDS011;3547;50.774;12.918;2023-05-07T12:09:12;1.70;;;1.60;;
7013;SDS011;3547;50.774;12.918;2023-05-07T12:11:38;2.42;;;1.92;;
7013;SDS011;3547;50.774;12.918;2023-05-07T12:14:08;2.35;;;2.15;;
7013;SDS011;3547;50.774;12.918;2023-05-07T12:16:36;1.85;;;1.73;;
7013;SDS011;3547;50.774;12.918;2023-05-07T12:19:23;2.10;;;1.75;;
7013;SDS011;3547;50.774;12.918;2023-05-07T12:21:52;3.20;;;2.08;;
7013;SDS011;3547;50.774;12.918;2023-05-07T12:24:20;3.15;;;2.28;;
7013;SDS011;3547;50.774;12.918;2023-05-07T12:26:52;2.78;;;2.03;;
7013;SDS011;3547;50.774;12.918;2023-05-07T12:29:23;2.10;;;1.90;;
7013;SDS011;3547;50.774;12.918;2023-05-07T12:31:49;2.65;;;1.77;;
7013;SDS011;3547;50.774;12.918;2023-05-07T12:34:22;4.38;;;2.28;;
7013;SDS011;3547;50.774;12.918;2023-05-07T12:37:22;2.17;;;2.00;;
7013;SDS011;3547;50.774;12.918;2023-05-07T12:40:09;2.38;;;2.17;;
7013;SDS011;3547;50.774;12.918;2023-05-07T12:42:39;2.03;;;1.73;;
7013;SDS011;3547;50.774;12.918;2023-05-07T12:45:10;2.17;;;1.98;;
7013;SDS011;3547;50.774;12.918;2023-05-07T12:47:45;3.55;;;1.77;;
7013;SDS011;3547;50.774;12.918;2023-05-07T12:50:17;1.92;;;1.83;;
7013;SDS011;3547;50.774;12.918;2023-05-07T12:52:49;2.17;;;1.58;;
7013;SDS011;3547;50.774;12.918;2023-05-07T12:55:17;2.47;;;2.17;;
7013;SDS011;3547;50.774;12.918;2023-05-07T12:57:45;1.90;;;1.73;;
7013;SDS011;3547;50.774;12.918;2023-05-07T13:00:14;2.10;;;1.90;;
7013;SDS011;3547;50.774;12.918;2023-05-07T13:03:00;1.77;;;1.65;;
7013;SDS011;3547;50.774;12.918;2023-05-07T13:05:26;1.73;;;1.63;;
7013;SDS011;3547;50.774;12.918;2023-05-07T13:07:58;1.50;;;1.40;;
7013;SDS011;3547;50.774;12.918;2023-05-07T13:10:26;3.00;;;1.92;;
7013;SDS011;3547;50.774;12.918;2023-05-07T13:12:59;3.10;;;2.10;;
7013;SDS011;3547;50.774;12.918;2023-05-07T13:15:25;1.90;;;1.60;;
7013;SDS011;3547;50.774;12.918;2023-05-07T13:17:55;2.00;;;1.63;;
7013;SDS011;3547;50.774;12.918;2023-05-07T13:20:28;1.70;;;1.60;;
7013;SDS011;3547;50.774;12.918;2023-05-07T13:23:51;2.53;;;2.00;;
7013;SDS011;3547;50.774;12.918;2023-05-07T13:26:25;2.38;;;2.00;;
7013;SDS011;3547;50.774;12.918;2023-05-07T13:28:52;2.28;;;1.83;;
7013;SDS011;3547;50.774;12.918;2023-05-07T13:31:21;3.30;;;2.10;;
7013;SDS011;3547;50.774;12.918;2023-05-07T13:33:54;2.33;;;2.13;;
7013;SDS011;3547;50.774;12.918;2023-05-07T13:36:33;2.45;;;2.25;;
7013;SDS011;3547;50.774;12.918;2023-05-07T13:39:05;2.45;;;2.25;;
7013;SDS011;3547;50.774;12.918;2023-05-07T13:41:31;2.30;;;1.90;;
7013;SDS011;3547;50.774;12.918;2023-05-07T13:44:02;3.08;;;2.05;;
7013;SDS011;3547;50.774;12.918;2023-05-07T13:46:30;2.63;;;2.42;;
7013;SDS011;3547;50.774;12.918;2023-05-07T13:49:00;2.22;;;1.92;;
7013;SDS011;3547;50.774;12.918;2023-05-07T13:51:29;2.15;;;1.95;;
7013;SDS011;3547;50.774;12.918;2023-05-07T13:53:55;2.40;;;2.20;;
7013;SDS011;3547;50.774;12.918;2023-05-07T13:56:27;2.28;;;2.08;;
7013;SDS011;3547;50.774;12.918;2023-05-07T13:58:56;2.22;;;2.03;;
7013;SDS011;3547;50.774;12.918;2023-05-07T14:01:29;2.40;;;2.20;;
7013;SDS011;3547;50.774;12.918;2023-05-07T14:03:56;1.67;;;1.48;;
7013;SDS011;3547;50.774;12.918;2023-05-07T14:06:28;2.08;;;1.98;;
7013;SDS011;3547;50.774;12.918;2023-05-07T14:08:54;2.10;;;1.90;;
7013;SDS011;3547;50.774;12.918;2023-05-07T14:11:21;1.90;;;1.80;;
7013;SDS011;3547;50.774;12.918;2023-05-07T14:13:52;2.25;;;2.08;;
7013;SDS011;3547;50.774;12.918;2023-05-07T14:20:01;2.63;;;2.20;;
7013;SDS011;3547;50.774;12.918;2023-05-07T14:22:27;1.98;;;1.80;;
7013;SDS011;3547;50.774;12.918;2023-05-07T14:24:53;2.83;;;2.08;;
7013;SDS011;3547;50.774;12.918;2023-05-07T14:27:19;2.72;;;1.90;;
7013;SDS011;3547;50.774;12.918;2023-05-07T14:29:45;2.08;;;1.88;;
7013;SDS011;3547;50.774;12.918;2023-05-07T14:32:19;1.88;;;1.77;;
7013;SDS011;3547;50.774;12.918;2023-05-07T14:34:49;2.00;;;1.90;;
7013;SDS011;3547;50.774;12.918;2023-05-07T14:37:21;2.40;;;2.03;;
7013;SDS011;3547;50.774;12.918;2023-05-07T14:39:50;2.30;;;2.10;;
7013;SDS011;3547;50.774;12.918;2023-05-07T14:42:19;2.05;;;1.85;;
7013;SDS011;3547;50.774;12.918;2023-05-07T14:44:48;1.65;;;1.55;;
7013;SDS011;3547;50.774;12.918;2023-05-07T14:47:14;2.25;;;2.05;;
7013;SDS011;3547;50.774;12.918;2023-05-07T14:49:41;2.13;;;1.98;;
7013;SDS011;3547;50.774;12.918;2023-05-07T14:52:07;2.35;;;2.17;;
7013;SDS011;3547;50.774;12.918;2023-05-07T14:54:36;2.72;;;2.53;;
7013;SDS011;3547;50.774;12.918;2023-05-07T14:57:04;2.20;;;2.00;;
7013;SDS011;3547;50.774;12.918;2023-05-07T14:59:38;2.20;;;2.08;;
7013;SDS011;3547;50.774;12.918;2023-05-07T15:02:09;2.33;;;1.92;;
7013;SDS011;3547;50.774;12.918;2023-05-07T15:04:37;2.60;;;2.40;;
7013;SDS011;3547;50.774;12.918;2023-05-07T15:07:05;2.10;;;1.90;;
7013;SDS011;3547;50.774;12.918;2023-05-07T15:09:31;2.88;;;2.20;;
7013;SDS011;3547;50.774;12.918;2023-05-07T15:12:01;1.90;;;1.80;;
7013;SDS011;3547;50.774;12.918;2023-05-07T15:14:28;2.70;;;2.20;;
7013;SDS011;3547;50.774;12.918;2023-05-07T15:16:57;2.80;;;2.55;;
7013;SDS011;3547;50.774;12.918;2023-05-07T15:19:23;3.53;;;2.30;;
7013;SDS011;3547;50.774;12.918;2023-05-07T15:22:13;1.90;;;1.80;;
7013;SDS011;3547;50.774;12.918;2023-05-07T15:24:40;2.60;;;2.10;;
7013;SDS011;3547;50.774;12.918;2023-05-07T15:35:14;2.25;;;2.05;;
7013;SDS011;3547;50.774;12.918;2023-05-07T15:37:41;2.30;;;2.10;;
7013;SDS011;3547;50.774;12.918;2023-05-07T15:40:10;2.72;;;2.53;;
7013;SDS011;3547;50.774;12.918;2023-05-07T15:42:36;2.78;;;2.58;;
7013;SDS011;3547;50.774;12.918;2023-05-07T15:45:04;3.10;;;2.90;;
7013;SDS011;3547;50.774;12.918;2023-05-07T15:47:32;2.90;;;2.58;;
7013;SDS011;3547;50.774;12.918;2023-05-07T15:50:03;2.55;;;2.33;;
7013;SDS011;3547;50.774;12.918;2023-05-07T15:53:14;2.33;;;2.13;;
7013;SDS011;3547;50.774;12.918;2023-05-07T15:55:41;2.92;;;2.40;;
7013;SDS011;3547;50.774;12.918;2023-05-07T16:01:58;5.78;;;2.60;;
7013;SDS011;3547;50.774;12.918;2023-05-07T16:04:25;2.80;;;2.60;;
7013;SDS011;3547;50.774;12.918;2023-05-07T16:06:52;3.13;;;2.83;;
7013;SDS011;3547;50.774;12.918;2023-05-07T16:09:20;2.90;;;2.70;;
7013;SDS011;3547;50.774;12.918;2023-05-07T16:11:47;4.47;;;2.80;;
7013;SDS011;3547;50.774;12.918;2023-05-07T16:14:18;3.03;;;2.83;;
7013;SDS011;3547;50.774;12.918;2023-05-07T16:19:20;3.10;;;2.80;;
7013;SDS011;3547;50.774;12.918;2023-05-07T16:21:48;2.70;;;2.50;;
7013;SDS011;3547;50.774;12.918;2023-05-07T16:24:17;3.05;;;2.85;;
7013;SDS011;3547;50.774;12.918;2023-05-07T16:42:26;2.67;;;2.47;;
7013;SDS011;3547;50.774;12.918;2023-05-07T16:44:53;3.33;;;2.70;;
7013;SDS011;3547;50.774;12.918;2023-05-07T16:47:19;3.15;;;2.85;;
7013;SDS011;3547;50.774;12.918;2023-05-07T16:49:45;2.80;;;2.60;;
7013;SDS011;3547;50.774;12.918;2023-05-07T16:52:12;3.78;;;3.38;;
7013;SDS011;3547;50.774;12.918;2023-05-07T16:54:38;2.88;;;2.58;;
7013;SDS011;3547;50.774;12.918;2023-05-07T16:57:04;4.07;;;2.45;;
7013;SDS011;3547;50.774;12.918;2023-05-07T17:04:42;3.22;;;2.92;;
7013;SDS011;3547;50.774;12.918;2023-05-07T17:07:08;2.63;;;2.42;;
7013;SDS011;3547;50.774;12.918;2023-05-07T17:09:34;3.25;;;2.58;;
7013;SDS011;3547;50.774;12.918;2023-05-07T17:12:00;3.00;;;2.80;;
7013;SDS011;3547;50.774;12.918;2023-05-07T17:14:31;3.22;;;2.92;;
7013;SDS011;3547;50.774;12.918;2023-05-07T17:16:57;2.67;;;2.47;;
7013;SDS011;3547;50.774;12.918;2023-05-07T17:19:24;2.80;;;2.60;;
7013;SDS011;3547;50.774;12.918;2023-05-07T17:21:52;3.35;;;3.05;;
7013;SDS011;3547;50.774;12.918;2023-05-07T17:30:14;2.78;;;2.58;;
7013;SDS011;3547;50.774;12.918;2023-05-07T17:32:56;2.83;;;2.58;;